Aviation Digital Data Service (ADDS)

Output produced by METARs form (0429 UTC 19 August 2019)
found at http://www.aviationweather.gov/metar/data/
 
Forecast for: WADD (BALI INTL , ID)
Text: TAF WADD 182300Z 1900/2000 12012KT 9999 SCT016
Forecast period: 0000 to 1600 UTC 19 August 2019
Forecast type: FROM: standard forecast or significant change
Winds: from the ESE (120 degrees) at 14 MPH (12 knots; 6.2 m/s)
Visibility: 6 or more miles 10+ km)
Ceiling: at least 12,000 feet AGL
Clouds: scattered clouds at 1600 feet AGL
Weather: no significant weather forecast for this period
Text: BECMG 1916/1918 11010KT
Forecast period: 1600 UTC 19 August 2019 to 0000 UTC 20 August 2019
Forecast type: BECOMING: Conditions expected to become as follows by 1800 UTC 19 August 2019
Winds: from the ESE (110 degrees) at 12 MPH (10 knots; 5.1 m/s)
Visibility: 6 or more miles 10+ km)
Ceiling: at least 12,000 feet AGL
Clouds: scattered clouds at 1600 feet AGL
Weather: no significant weather forecast for this period